createdAt,value
2018-10-09T00:02:26.174Z,21.80
2018-10-09T00:05:01.594Z,20.00
2018-10-09T00:07:36.961Z,17.25
2018-10-09T00:10:12.240Z,19.65
2018-10-09T00:12:47.701Z,18.90
2018-10-09T00:15:23.030Z,13.55
2018-10-09T00:17:58.524Z,18.75
2018-10-09T00:20:34.130Z,16.20
2018-10-09T00:23:09.623Z,16.17
2018-10-09T00:25:44.931Z,20.17
2018-10-09T00:28:20.391Z,14.13
2018-10-09T00:30:55.724Z,18.30
2018-10-09T00:33:31.404Z,16.67
2018-10-09T00:36:07.303Z,15.70
2018-10-09T00:38:42.893Z,14.30
2018-10-09T00:41:18.401Z,17.67
2018-10-09T00:43:53.961Z,17.17
2018-10-09T00:46:29.720Z,18.17
2018-10-09T00:49:05.341Z,14.10
2018-10-09T00:51:40.702Z,19.82
2018-10-09T00:54:16.122Z,23.57
2018-10-09T00:56:51.505Z,18.05
2018-10-09T00:59:27.010Z,16.02
2018-10-09T01:02:02.504Z,22.02
2018-10-09T01:04:38.136Z,18.00
2018-10-09T01:07:13.593Z,19.32
2018-10-09T01:09:48.815Z,19.05
2018-10-09T01:12:24.266Z,17.37
2018-10-09T01:14:59.741Z,19.62
2018-10-09T01:17:35.146Z,24.70
2018-10-09T01:20:10.723Z,24.87
2018-10-09T01:22:46.364Z,20.10
2018-10-09T01:25:21.894Z,23.65
2018-10-09T01:27:57.487Z,20.30
2018-10-09T01:30:33.741Z,21.45
2018-10-09T01:33:09.139Z,25.48
2018-10-09T01:35:45.671Z,23.30
2018-10-09T01:38:21.070Z,24.05
2018-10-09T01:40:56.503Z,21.70
2018-10-09T01:43:32.027Z,23.80
2018-10-09T01:46:07.675Z,23.25
2018-10-09T01:48:43.191Z,20.60
2018-10-09T01:51:18.583Z,20.05
2018-10-09T01:53:54.046Z,20.68
2018-10-09T01:56:29.248Z,22.07
2018-10-09T01:59:04.934Z,24.10
2018-10-09T02:01:40.453Z,20.23
2018-10-09T02:04:16.157Z,23.83
2018-10-09T02:06:51.542Z,23.02
2018-10-09T02:09:27.125Z,20.57
2018-10-09T02:12:02.411Z,21.25
2018-10-09T02:14:37.804Z,21.45
2018-10-09T02:17:13.336Z,20.08
2018-10-09T02:19:48.886Z,29.87
2018-10-09T02:22:24.501Z,20.60
2018-10-09T02:24:59.934Z,27.60
2018-10-09T02:27:35.291Z,27.52
2018-10-09T02:30:10.988Z,26.17
2018-10-09T02:32:46.490Z,23.90
2018-10-09T02:35:22.044Z,24.70
2018-10-09T02:37:57.414Z,27.10
2018-10-09T02:40:32.601Z,29.07
2018-10-09T02:43:08.072Z,25.08
2018-10-09T02:45:43.494Z,27.15
2018-10-09T02:48:18.887Z,22.90
2018-10-09T02:50:54.185Z,24.10
2018-10-09T02:53:29.591Z,27.75
2018-10-09T02:56:05.182Z,25.62
2018-10-09T02:58:40.731Z,26.70
2018-10-09T03:01:16.351Z,23.00
2018-10-09T03:03:51.921Z,29.80
2018-10-09T03:06:27.343Z,32.48
2018-10-09T03:09:02.603Z,29.80
2018-10-09T03:11:38.086Z,26.65
2018-10-09T03:14:13.711Z,24.37
2018-10-09T03:16:49.000Z,26.90
2018-10-09T03:19:24.374Z,26.12
2018-10-09T03:21:59.900Z,34.20
2018-10-09T03:24:35.161Z,25.40
2018-10-09T03:27:10.704Z,22.05
2018-10-09T03:29:46.278Z,28.05
2018-10-09T03:32:21.774Z,27.75
2018-10-09T03:34:57.143Z,28.12
2018-10-09T03:37:32.571Z,24.23
2018-10-09T03:40:07.841Z,22.07
2018-10-09T03:42:43.329Z,27.22
2018-10-09T03:45:18.553Z,26.62
2018-10-09T03:47:53.821Z,26.60
2018-10-09T03:50:29.297Z,29.75
2018-10-09T03:53:04.827Z,30.62
2018-10-09T03:55:40.703Z,25.97
2018-10-09T03:58:16.311Z,31.02
2018-10-09T04:00:51.780Z,24.35
2018-10-09T04:03:27.112Z,28.67
2018-10-09T04:06:02.723Z,31.15
2018-10-09T04:08:37.990Z,23.00
2018-10-09T04:11:13.238Z,20.80
2018-10-09T04:13:48.561Z,27.40
2018-10-09T04:16:24.054Z,30.10
2018-10-09T04:18:59.471Z,28.12
2018-10-09T04:21:34.835Z,21.75
2018-10-09T04:24:09.901Z,25.27
2018-10-09T04:26:45.514Z,24.77
2018-10-09T04:29:20.847Z,30.92
2018-10-09T04:31:56.513Z,24.92
2018-10-09T04:34:32.011Z,24.85
2018-10-09T04:37:07.451Z,27.13
2018-10-09T04:39:42.792Z,27.25
2018-10-09T04:42:18.260Z,22.52
2018-10-09T04:44:53.593Z,27.22
2018-10-09T04:47:29.110Z,29.07
2018-10-09T04:50:04.403Z,27.85
2018-10-09T04:52:39.750Z,27.35
2018-10-09T04:55:15.163Z,28.90
2018-10-09T04:57:50.464Z,29.92
2018-10-09T05:00:25.743Z,25.80
2018-10-09T05:03:01.420Z,28.42
2018-10-09T05:05:36.922Z,29.42
2018-10-09T05:08:12.403Z,32.00
2018-10-09T05:10:47.723Z,32.30
2018-10-09T05:13:23.132Z,29.45
2018-10-09T05:15:58.643Z,26.05
2018-10-09T05:18:34.107Z,28.83
2018-10-09T05:21:09.524Z,33.78
2018-10-09T05:23:44.883Z,47.13
2018-10-09T05:26:20.183Z,30.00
2018-10-09T05:28:55.550Z,31.97
2018-10-09T05:31:31.346Z,28.25
2018-10-09T05:34:06.660Z,30.25
2018-10-09T05:36:42.093Z,28.10
2018-10-09T05:39:17.763Z,28.60
2018-10-09T05:41:53.207Z,27.40
2018-10-09T05:44:28.585Z,39.35
2018-10-09T05:47:04.183Z,30.10
2018-10-09T05:49:39.620Z,31.10
2018-10-09T05:52:15.070Z,32.58
2018-10-09T05:54:50.764Z,36.50
2018-10-09T05:57:26.264Z,38.33
2018-10-09T06:00:01.734Z,34.38
2018-10-09T06:02:37.009Z,33.53
2018-10-09T06:05:12.381Z,35.38
2018-10-09T06:07:47.811Z,29.90
2018-10-09T06:10:23.090Z,29.50
2018-10-09T06:12:58.190Z,38.50
2018-10-09T06:15:33.558Z,37.42
2018-10-09T06:18:08.870Z,35.73
2018-10-09T06:20:44.461Z,34.90
2018-10-09T06:23:19.970Z,32.00
2018-10-09T06:25:55.531Z,33.02
2018-10-09T06:28:31.353Z,29.15
2018-10-09T06:31:07.281Z,27.60
2018-10-09T06:33:42.985Z,29.37
2018-10-09T06:36:18.353Z,29.25
2018-10-09T06:38:54.206Z,30.90
2018-10-09T06:41:29.671Z,28.67
2018-10-09T06:44:05.491Z,29.12
2018-10-09T06:46:41.910Z,32.95
2018-10-09T06:49:17.291Z,29.27
2018-10-09T06:51:52.714Z,28.85
2018-10-09T06:54:28.300Z,26.97
2018-10-09T06:57:04.404Z,26.48
2018-10-09T06:59:40.731Z,32.05
2018-10-09T07:02:16.305Z,23.20
2018-10-09T07:04:51.640Z,27.77
2018-10-09T07:07:27.124Z,23.70
2018-10-09T07:10:03.404Z,23.62
2018-10-09T07:12:39.025Z,27.42
2018-10-09T07:15:14.586Z,25.82
2018-10-09T07:17:50.206Z,29.00
2018-10-09T07:20:25.994Z,25.27
2018-10-09T07:23:01.254Z,31.85
2018-10-09T07:25:36.782Z,25.57
2018-10-09T07:28:12.292Z,22.07
2018-10-09T07:30:48.045Z,20.92
2018-10-09T07:33:23.503Z,24.20
2018-10-09T07:35:59.021Z,22.30
2018-10-09T07:38:34.654Z,22.07
2018-10-09T07:41:10.368Z,23.57
2018-10-09T07:43:46.595Z,26.57
2018-10-09T07:46:22.295Z,25.82
2018-10-09T07:48:59.071Z,20.80
2018-10-09T07:51:34.556Z,25.95
2018-10-09T07:54:10.655Z,21.35
2018-10-09T07:56:47.252Z,19.17
2018-10-09T07:59:22.735Z,20.60
2018-10-09T08:01:58.356Z,18.27
2018-10-09T08:04:33.816Z,22.82
2018-10-09T08:07:09.127Z,21.55
2018-10-09T08:09:44.621Z,22.40
2018-10-09T08:12:20.087Z,22.67
2018-10-09T08:14:55.602Z,18.80
2018-10-09T08:17:30.861Z,22.27
2018-10-09T08:20:06.258Z,19.10
2018-10-09T08:22:41.900Z,18.30
2018-10-09T08:25:17.704Z,19.25
2018-10-09T08:27:53.459Z,18.07
2018-10-09T08:30:29.118Z,18.45
2018-10-09T08:33:04.516Z,16.97
2018-10-09T08:35:40.036Z,21.20
2018-10-09T08:38:15.741Z,17.92
2018-10-09T08:40:51.268Z,22.55
2018-10-09T08:43:26.711Z,19.90
2018-10-09T08:46:02.325Z,23.60
2018-10-09T08:48:37.976Z,20.62
2018-10-09T08:51:13.381Z,17.65
2018-10-09T08:53:49.823Z,24.75
2018-10-09T08:56:25.270Z,15.32
2018-10-09T08:59:01.007Z,21.60
2018-10-09T09:01:36.524Z,16.65
2018-10-09T09:04:11.925Z,16.97
2018-10-09T09:06:47.395Z,18.10
2018-10-09T09:09:22.956Z,22.48
2018-10-09T09:11:58.478Z,16.65
2018-10-09T09:14:34.015Z,17.90
2018-10-09T09:17:16.743Z,20.05
2018-10-09T09:19:56.955Z,18.82
2018-10-09T09:22:32.468Z,17.00
2018-10-09T09:25:07.975Z,19.65
2018-10-09T09:27:43.401Z,14.75
2018-10-09T09:30:18.749Z,14.15
2018-10-09T09:32:54.243Z,19.65
2018-10-09T09:35:29.774Z,14.33
2018-10-09T09:38:05.226Z,15.18
2018-10-09T09:40:40.755Z,17.87
2018-10-09T09:43:16.564Z,17.80
2018-10-09T09:45:52.112Z,21.45
2018-10-09T09:48:27.254Z,15.85
2018-10-09T09:51:02.722Z,16.48
2018-10-09T09:53:38.176Z,23.38
2018-10-09T09:56:13.801Z,15.53
2018-10-09T09:58:49.597Z,15.25
2018-10-09T10:01:30.078Z,19.30
2018-10-09T10:04:05.492Z,18.77
2018-10-09T10:06:40.930Z,15.55
2018-10-09T10:09:16.264Z,21.70
2018-10-09T10:11:51.508Z,16.45
2018-10-09T10:14:27.088Z,17.02
2018-10-09T10:17:02.551Z,20.65
2018-10-09T10:19:38.049Z,15.50
2018-10-09T10:22:13.582Z,18.80
2018-10-09T10:24:48.973Z,18.60
2018-10-09T10:27:24.474Z,17.07
2018-10-09T10:29:59.682Z,16.65
2018-10-09T10:32:35.045Z,16.97
2018-10-09T10:35:10.403Z,17.57
2018-10-09T10:37:46.665Z,19.85
2018-10-09T10:40:22.043Z,18.65
2018-10-09T10:42:57.432Z,17.87
2018-10-09T10:45:33.002Z,16.20
2018-10-09T10:48:08.354Z,12.63
2018-10-09T10:50:43.825Z,16.70
2018-10-09T10:53:19.101Z,14.18
2018-10-09T10:55:54.586Z,14.75
2018-10-09T10:58:30.027Z,15.78
2018-10-09T11:01:05.385Z,15.58
2018-10-09T11:03:41.012Z,12.78
2018-10-09T11:06:16.924Z,11.40
2018-10-09T11:08:52.435Z,17.40
2018-10-09T11:11:28.005Z,14.95
2018-10-09T11:14:03.415Z,13.25
2018-10-09T11:16:39.095Z,20.37
2018-10-09T11:19:14.472Z,18.17
2018-10-09T11:21:49.831Z,14.70
2018-10-09T11:24:25.491Z,17.20
2018-10-09T11:27:00.964Z,23.00
2018-10-09T11:29:36.824Z,12.10
2018-10-09T11:32:12.304Z,14.87
2018-10-09T11:34:47.628Z,12.30
2018-10-09T11:37:23.042Z,15.50
2018-10-09T11:39:58.733Z,14.83
2018-10-09T11:42:34.169Z,15.80
2018-10-09T11:45:09.466Z,16.33
2018-10-09T11:47:45.074Z,13.20
2018-10-09T11:50:20.485Z,17.47
2018-10-09T11:52:56.051Z,21.17
2018-10-09T11:55:31.474Z,14.80
2018-10-09T11:58:07.021Z,15.60
2018-10-09T12:00:43.641Z,16.90
2018-10-09T12:03:19.251Z,19.13
2018-10-09T12:05:54.903Z,17.07
2018-10-09T12:08:30.283Z,16.80
2018-10-09T12:11:36.648Z,16.33
2018-10-09T12:14:12.671Z,16.40
2018-10-09T12:16:48.129Z,18.83
2018-10-09T12:19:23.451Z,14.70
2018-10-09T12:21:59.004Z,15.93
2018-10-09T12:24:34.454Z,15.50
2018-10-09T12:27:10.068Z,15.43
2018-10-09T12:29:45.340Z,15.53
2018-10-09T12:32:20.881Z,15.43
2018-10-09T12:34:56.334Z,15.40
2018-10-09T12:37:31.660Z,16.82
2018-10-09T12:40:07.070Z,20.57
2018-10-09T12:42:42.302Z,14.43
2018-10-09T12:45:17.603Z,16.73
2018-10-09T12:47:53.251Z,16.60
2018-10-09T12:50:28.694Z,15.20
2018-10-09T12:53:04.282Z,13.43
2018-10-09T12:55:39.885Z,15.83
2018-10-09T12:58:15.294Z,18.33
2018-10-09T13:00:50.784Z,14.00
2018-10-09T13:03:26.288Z,13.83
2018-10-09T13:06:01.983Z,16.90
2018-10-09T13:08:37.523Z,14.50
2018-10-09T13:11:12.944Z,17.93
2018-10-09T13:13:48.481Z,14.10
2018-10-09T13:16:23.954Z,12.37
2018-10-09T13:18:59.601Z,13.87
2018-10-09T13:21:35.402Z,18.27
2018-10-09T13:24:10.771Z,15.13
2018-10-09T13:26:46.216Z,14.13
2018-10-09T13:29:21.767Z,16.17
2018-10-09T13:31:57.427Z,14.67
2018-10-09T13:34:33.037Z,14.20
2018-10-09T13:37:08.632Z,14.80
2018-10-09T13:39:44.020Z,16.07
2018-10-09T13:42:20.430Z,16.13
2018-10-09T13:44:56.075Z,18.10
2018-10-09T13:47:32.302Z,15.10
2018-10-09T13:50:07.723Z,24.73
2018-10-09T13:52:44.026Z,15.73
2018-10-09T13:55:19.662Z,20.97
2018-10-09T13:57:55.172Z,19.17
2018-10-09T14:00:30.669Z,16.17
2018-10-09T14:03:06.021Z,17.07
2018-10-09T14:05:41.442Z,20.33
2018-10-09T14:08:16.855Z,19.43
2018-10-09T14:10:52.342Z,17.23
2018-10-09T14:13:28.012Z,17.40
2018-10-09T14:16:03.344Z,17.50
2018-10-09T14:18:38.799Z,15.37
2018-10-09T14:21:14.223Z,17.33
2018-10-09T14:23:49.414Z,21.37
2018-10-09T14:26:24.860Z,19.93
2018-10-09T14:29:00.399Z,18.57
2018-10-09T14:31:35.801Z,20.05
2018-10-09T14:34:11.362Z,15.57
2018-10-09T14:36:46.893Z,17.83
2018-10-09T14:39:22.523Z,15.40
2018-10-09T14:41:57.923Z,18.83
2018-10-09T14:44:33.503Z,19.60
2018-10-09T14:47:08.951Z,18.77
2018-10-09T14:49:44.391Z,19.50
2018-10-09T14:52:22.408Z,21.93
2018-10-09T14:54:57.991Z,16.07
2018-10-09T14:57:33.281Z,16.23
2018-10-09T15:00:10.462Z,16.00
2018-10-09T15:02:45.885Z,21.93
2018-10-09T15:05:21.244Z,17.70
2018-10-09T15:07:56.545Z,17.27
2018-10-09T15:10:31.922Z,21.20
2018-10-09T15:13:07.224Z,19.90
2018-10-09T15:15:43.027Z,20.47
2018-10-09T15:18:18.522Z,19.13
2018-10-09T15:20:53.925Z,23.60
2018-10-09T15:23:29.436Z,22.43
2018-10-09T15:26:04.714Z,23.73
2018-10-09T15:28:39.924Z,23.60
2018-10-09T15:31:15.465Z,23.00
2018-10-09T15:33:50.901Z,19.13
2018-10-09T15:36:26.385Z,24.07
2018-10-09T15:39:01.796Z,24.83
2018-10-09T15:41:37.296Z,28.10
2018-10-09T15:44:12.773Z,20.57
2018-10-09T15:46:48.284Z,22.13
2018-10-09T15:49:23.775Z,21.13
2018-10-09T15:51:59.212Z,22.50
2018-10-09T15:54:34.772Z,23.30
2018-10-09T15:57:10.259Z,24.40
2018-10-09T15:59:45.971Z,23.23
2018-10-09T16:02:21.644Z,24.35
2018-10-09T16:04:57.005Z,21.00
2018-10-09T16:07:32.295Z,21.65
2018-10-09T16:10:07.805Z,22.43
2018-10-09T16:12:43.202Z,20.48
2018-10-09T16:15:18.646Z,21.20
2018-10-09T16:17:54.162Z,20.60
2018-10-09T16:20:29.763Z,18.42
2018-10-09T16:23:05.375Z,19.67
2018-10-09T16:25:40.816Z,21.52
2018-10-09T16:28:16.182Z,19.80
2018-10-09T16:30:51.615Z,21.42
2018-10-09T16:33:27.044Z,25.95
2018-10-09T16:36:02.532Z,25.20
2018-10-09T16:38:37.931Z,19.98
2018-10-09T16:41:13.364Z,20.57
2018-10-09T16:43:48.861Z,21.93
2018-10-09T16:46:24.232Z,25.50
2018-10-09T16:48:59.761Z,22.22
2018-10-09T16:51:35.255Z,25.48
2018-10-09T16:54:10.934Z,25.00
2018-10-09T16:56:46.658Z,20.97
2018-10-09T16:59:22.231Z,25.85
2018-10-09T17:01:57.548Z,25.20
2018-10-09T17:04:33.226Z,28.50
2018-10-09T17:07:08.747Z,27.65
2018-10-09T17:09:44.300Z,24.20
2018-10-09T17:12:19.723Z,27.13
2018-10-09T17:14:54.900Z,23.75
2018-10-09T17:17:30.440Z,24.30
2018-10-09T17:20:05.924Z,24.45
2018-10-09T17:22:41.434Z,25.97
2018-10-09T17:25:16.980Z,21.50
2018-10-09T17:27:52.482Z,23.42
2018-10-09T17:30:27.971Z,23.30
2018-10-09T17:33:03.537Z,24.43
2018-10-09T17:35:38.871Z,30.95
2018-10-09T17:38:14.394Z,23.30
2018-10-09T17:40:50.008Z,27.22
2018-10-09T17:43:25.583Z,25.70
2018-10-09T17:46:00.983Z,30.48
2018-10-09T17:48:36.518Z,21.97
2018-10-09T17:51:12.032Z,23.27
2018-10-09T17:53:47.576Z,29.82
2018-10-09T17:56:22.882Z,31.60
2018-10-09T17:58:58.346Z,42.40
2018-10-09T18:01:33.803Z,34.33
2018-10-09T18:04:09.361Z,31.33
2018-10-09T18:06:44.933Z,32.85
2018-10-09T18:09:20.302Z,31.35
2018-10-09T18:11:55.671Z,29.80
2018-10-09T18:14:31.202Z,27.98
2018-10-09T18:17:06.722Z,26.60
2018-10-09T18:19:42.101Z,23.40
2018-10-09T18:22:17.585Z,25.55
2018-10-09T18:24:52.975Z,24.95
2018-10-09T18:27:28.584Z,27.98
2018-10-09T18:30:04.136Z,33.15
2018-10-09T18:32:39.648Z,30.20
2018-10-09T18:35:15.082Z,49.20
2018-10-09T18:37:50.675Z,55.38
2018-10-09T18:40:27.403Z,57.27
2018-10-09T18:43:02.974Z,37.08
2018-10-09T18:45:38.511Z,32.78
2018-10-09T18:48:13.781Z,25.30
2018-10-09T18:50:49.295Z,27.45
2018-10-09T18:53:24.991Z,26.68
2018-10-09T18:56:00.486Z,24.12
2018-10-09T18:58:35.955Z,27.95
2018-10-09T19:01:11.564Z,25.17
2018-10-09T19:03:47.166Z,22.42
2018-10-09T19:06:22.569Z,28.92
2018-10-09T19:08:58.241Z,32.28
2018-10-09T19:11:33.565Z,24.60
2018-10-09T19:14:09.127Z,22.32
2018-10-09T19:16:44.689Z,33.30
2018-10-09T19:19:20.244Z,28.00
2018-10-09T19:21:55.754Z,31.23
2018-10-09T19:24:31.314Z,26.33
2018-10-09T19:27:06.840Z,26.57
2018-10-09T19:29:42.392Z,26.80
2018-10-09T19:32:17.846Z,26.93
2018-10-09T19:34:53.281Z,26.68
2018-10-09T19:37:28.492Z,27.55
2018-10-09T19:40:04.081Z,29.63
2018-10-09T19:42:39.521Z,28.67
2018-10-09T19:45:15.185Z,23.52
2018-10-09T19:47:50.925Z,24.95
2018-10-09T19:50:26.351Z,22.35
2018-10-09T19:53:02.134Z,26.23
2018-10-09T19:55:37.661Z,25.05
2018-10-09T19:58:13.104Z,24.25
2018-10-09T20:00:48.558Z,22.10
2018-10-09T20:03:24.114Z,28.10
2018-10-09T20:05:59.762Z,26.62
2018-10-09T20:08:35.282Z,29.15
2018-10-09T20:11:10.781Z,25.23
2018-10-09T20:13:46.318Z,22.93
2018-10-09T20:16:21.646Z,24.57
2018-10-09T20:18:57.162Z,23.57
2018-10-09T20:21:32.641Z,25.95
2018-10-09T20:24:08.208Z,26.00
2018-10-09T20:26:43.749Z,24.35
2018-10-09T20:29:19.182Z,28.85
2018-10-09T20:31:54.802Z,29.20
2018-10-09T20:34:30.287Z,29.63
2018-10-09T20:37:05.825Z,22.93
2018-10-09T20:39:41.375Z,24.20
2018-10-09T20:42:17.138Z,23.35
2018-10-09T20:44:52.866Z,31.75
2018-10-09T20:47:48.685Z,26.05
2018-10-09T20:50:24.280Z,26.42
2018-10-09T20:52:59.717Z,34.53
2018-10-09T20:55:35.005Z,29.42
2018-10-09T20:58:10.783Z,26.40
2018-10-09T21:00:46.282Z,27.25
2018-10-09T21:03:21.686Z,28.83
2018-10-09T21:05:57.414Z,30.62
2018-10-09T21:08:32.823Z,24.57
2018-10-09T21:11:08.590Z,25.32
2018-10-09T21:13:44.264Z,29.80
2018-10-09T21:16:19.582Z,28.57
2018-10-09T21:18:55.142Z,38.53
2018-10-09T21:21:30.453Z,31.97
2018-10-09T21:24:05.934Z,31.85
2018-10-09T21:26:41.237Z,32.23
2018-10-09T21:29:16.641Z,26.77
2018-10-09T21:31:52.026Z,29.45
2018-10-09T21:34:27.617Z,27.62
2018-10-09T21:37:03.055Z,29.45
2018-10-09T21:39:38.595Z,23.92
2018-10-09T21:42:14.115Z,27.55
2018-10-09T21:44:49.459Z,28.90
2018-10-09T21:47:25.012Z,26.60
2018-10-09T21:50:00.477Z,27.05
2018-10-09T21:52:35.667Z,28.35
2018-10-09T21:55:11.096Z,29.37
2018-10-09T21:57:46.822Z,28.05
2018-10-09T22:00:22.484Z,36.68
2018-10-09T22:02:57.945Z,24.90
2018-10-09T22:05:33.232Z,24.25
2018-10-09T22:08:17.258Z,32.73
2018-10-09T22:10:52.846Z,30.02
2018-10-09T22:13:28.745Z,29.63
2018-10-09T22:16:04.024Z,40.40
2018-10-09T22:18:39.650Z,28.70
2018-10-09T22:21:15.135Z,26.97
2018-10-09T22:23:50.621Z,28.50
2018-10-09T22:26:25.922Z,34.65
2018-10-09T22:29:01.128Z,34.90
2018-10-09T22:31:36.381Z,31.25
2018-10-09T22:34:11.836Z,29.75
2018-10-09T22:36:47.415Z,31.60
2018-10-09T22:39:22.813Z,29.12
2018-10-09T22:41:58.008Z,38.23
2018-10-09T22:44:33.375Z,31.93
2018-10-09T22:47:08.912Z,40.70
2018-10-09T22:49:44.441Z,40.50
2018-10-09T22:52:20.054Z,32.10
2018-10-09T22:54:55.554Z,28.35
2018-10-09T22:57:31.136Z,28.60
2018-10-09T23:00:06.852Z,31.97
2018-10-09T23:02:42.434Z,33.33
2018-10-09T23:05:17.866Z,28.30
2018-10-09T23:07:53.381Z,34.75
2018-10-09T23:10:29.144Z,30.35
2018-10-09T23:13:04.516Z,33.00
2018-10-09T23:15:39.919Z,35.13
2018-10-09T23:18:15.417Z,30.90
2018-10-09T23:20:50.729Z,28.60
2018-10-09T23:23:25.954Z,27.62
2018-10-09T23:26:01.317Z,30.57
2018-10-09T23:28:42.244Z,27.42
2018-10-09T23:31:22.247Z,27.95
2018-10-09T23:33:57.688Z,31.68
2018-10-09T23:36:33.281Z,33.70
2018-10-09T23:39:09.356Z,39.65
2018-10-09T23:41:53.114Z,36.10
2018-10-09T23:44:29.294Z,33.63
2018-10-09T23:47:04.791Z,41.30
2018-10-09T23:49:40.271Z,34.20
2018-10-09T23:52:15.594Z,38.50
2018-10-09T23:54:50.951Z,45.80
2018-10-09T23:57:26.530Z,40.23
